sensor_id;sensor_type;location;lat;lon;timestamp;P1;durP1;ratioP1;P2;durP2;ratioP2
19414;SDS011;9843;48.882;12.592;2023-04-21T00:01:15;10.93;;;8.07;;
19414;SDS011;9843;48.882;12.592;2023-04-21T00:03:42;14.40;;;7.80;;
19414;SDS011;9843;48.882;12.592;2023-04-21T00:06:10;10.10;;;8.50;;
19414;SDS011;9843;48.882;12.592;2023-04-21T00:08:37;9.70;;;8.80;;
19414;SDS011;9843;48.882;12.592;2023-04-21T00:11:05;10.50;;;9.40;;
19414;SDS011;9843;48.882;12.592;2023-04-21T00:13:32;10.27;;;7.90;;
19414;SDS011;9843;48.882;12.592;2023-04-21T00:16:00;12.00;;;9.13;;
19414;SDS011;9843;48.882;12.592;2023-04-21T00:18:28;9.23;;;8.33;;
19414;SDS011;9843;48.882;12.592;2023-04-21T00:20:55;9.87;;;8.87;;
19414;SDS011;9843;48.882;12.592;2023-04-21T00:23:22;9.70;;;8.63;;
19414;SDS011;9843;48.882;12.592;2023-04-21T00:25:49;9.90;;;8.90;;
19414;SDS011;9843;48.882;12.592;2023-04-21T00:28:17;10.03;;;8.40;;
19414;SDS011;9843;48.882;12.592;2023-04-21T00:30:44;8.60;;;7.73;;
19414;SDS011;9843;48.882;12.592;2023-04-21T00:33:11;9.10;;;8.20;;
19414;SDS011;9843;48.882;12.592;2023-04-21T00:35:40;8.80;;;8.00;;
19414;SDS011;9843;48.882;12.592;2023-04-21T00:38:07;9.73;;;8.00;;
19414;SDS011;9843;48.882;12.592;2023-04-21T00:40:34;9.77;;;8.30;;
19414;SDS011;9843;48.882;12.592;2023-04-21T00:43:04;9.10;;;8.37;;
19414;SDS011;9843;48.882;12.592;2023-04-21T00:45:31;9.80;;;8.90;;
19414;SDS011;9843;48.882;12.592;2023-04-21T00:47:58;10.30;;;9.30;;
19414;SDS011;9843;48.882;12.592;2023-04-21T00:50:25;11.37;;;7.80;;
19414;SDS011;9843;48.882;12.592;2023-04-21T00:52:54;9.10;;;8.30;;
19414;SDS011;9843;48.882;12.592;2023-04-21T00:55:21;10.20;;;8.77;;
19414;SDS011;9843;48.882;12.592;2023-04-21T00:57:48;9.73;;;8.73;;
19414;SDS011;9843;48.882;12.592;2023-04-21T01:00:16;10.87;;;9.83;;
19414;SDS011;9843;48.882;12.592;2023-04-21T01:02:44;11.70;;;9.30;;
19414;SDS011;9843;48.882;12.592;2023-04-21T01:05:11;10.77;;;9.57;;
19414;SDS011;9843;48.882;12.592;2023-04-21T01:07:40;11.30;;;10.10;;
19414;SDS011;9843;48.882;12.592;2023-04-21T01:10:09;11.03;;;9.97;;
19414;SDS011;9843;48.882;12.592;2023-04-21T01:12:40;10.07;;;8.93;;
19414;SDS011;9843;48.882;12.592;2023-04-21T01:15:08;10.73;;;9.53;;
19414;SDS011;9843;48.882;12.592;2023-04-21T01:17:36;9.90;;;9.00;;
19414;SDS011;9843;48.882;12.592;2023-04-21T01:20:05;12.73;;;9.67;;
19414;SDS011;9843;48.882;12.592;2023-04-21T01:22:35;9.67;;;8.63;;
19414;SDS011;9843;48.882;12.592;2023-04-21T01:25:03;10.80;;;9.80;;
19414;SDS011;9843;48.882;12.592;2023-04-21T01:27:31;11.80;;;10.37;;
19414;SDS011;9843;48.882;12.592;2023-04-21T01:29:58;9.27;;;8.37;;
19414;SDS011;9843;48.882;12.592;2023-04-21T01:32:26;9.70;;;8.77;;
19414;SDS011;9843;48.882;12.592;2023-04-21T01:34:54;13.10;;;10.00;;
19414;SDS011;9843;48.882;12.592;2023-04-21T01:37:22;16.67;;;12.37;;
19414;SDS011;9843;48.882;12.592;2023-04-21T01:39:51;13.33;;;11.57;;
19414;SDS011;9843;48.882;12.592;2023-04-21T01:42:19;10.20;;;9.17;;
19414;SDS011;9843;48.882;12.592;2023-04-21T01:44:46;12.97;;;11.13;;
19414;SDS011;9843;48.882;12.592;2023-04-21T01:47:14;14.23;;;12.73;;
19414;SDS011;9843;48.882;12.592;2023-04-21T01:49:41;18.27;;;12.93;;
19414;SDS011;9843;48.882;12.592;2023-04-21T01:52:08;23.70;;;19.07;;
19414;SDS011;9843;48.882;12.592;2023-04-21T01:54:36;26.43;;;20.33;;
19414;SDS011;9843;48.882;12.592;2023-04-21T01:57:04;22.77;;;17.33;;
19414;SDS011;9843;48.882;12.592;2023-04-21T01:59:31;23.53;;;17.70;;
19414;SDS011;9843;48.882;12.592;2023-04-21T02:01:59;22.83;;;16.23;;
19414;SDS011;9843;48.882;12.592;2023-04-21T02:04:26;24.17;;;15.73;;
19414;SDS011;9843;48.882;12.592;2023-04-21T02:06:53;26.87;;;20.83;;
19414;SDS011;9843;48.882;12.592;2023-04-21T02:09:20;40.70;;;25.90;;
19414;SDS011;9843;48.882;12.592;2023-04-21T02:11:47;33.10;;;25.67;;
19414;SDS011;9843;48.882;12.592;2023-04-21T02:14:15;32.27;;;22.47;;
19414;SDS011;9843;48.882;12.592;2023-04-21T02:16:42;32.73;;;23.43;;
19414;SDS011;9843;48.882;12.592;2023-04-21T02:19:09;43.53;;;27.83;;
19414;SDS011;9843;48.882;12.592;2023-04-21T02:21:36;32.63;;;22.97;;
19414;SDS011;9843;48.882;12.592;2023-04-21T02:24:03;28.20;;;20.57;;
19414;SDS011;9843;48.882;12.592;2023-04-21T02:26:30;22.57;;;14.40;;
19414;SDS011;9843;48.882;12.592;2023-04-21T02:28:58;28.47;;;17.87;;
19414;SDS011;9843;48.882;12.592;2023-04-21T02:31:26;24.67;;;18.30;;
19414;SDS011;9843;48.882;12.592;2023-04-21T02:33:53;22.17;;;16.23;;
19414;SDS011;9843;48.882;12.592;2023-04-21T02:36:20;18.97;;;16.10;;
19414;SDS011;9843;48.882;12.592;2023-04-21T02:38:47;31.37;;;21.30;;
19414;SDS011;9843;48.882;12.592;2023-04-21T02:41:15;36.70;;;23.10;;
19414;SDS011;9843;48.882;12.592;2023-04-21T02:43:42;33.53;;;22.13;;
19414;SDS011;9843;48.882;12.592;2023-04-21T02:46:09;36.40;;;22.70;;
19414;SDS011;9843;48.882;12.592;2023-04-21T02:48:37;27.03;;;17.70;;
19414;SDS011;9843;48.882;12.592;2023-04-21T02:51:04;25.07;;;17.57;;
19414;SDS011;9843;48.882;12.592;2023-04-21T02:53:31;19.90;;;16.23;;
19414;SDS011;9843;48.882;12.592;2023-04-21T02:55:58;19.30;;;15.57;;
19414;SDS011;9843;48.882;12.592;2023-04-21T02:58:28;19.83;;;15.47;;
19414;SDS011;9843;48.882;12.592;2023-04-21T03:00:55;16.33;;;13.93;;
19414;SDS011;9843;48.882;12.592;2023-04-21T03:03:22;17.90;;;15.20;;
19414;SDS011;9843;48.882;12.592;2023-04-21T03:05:55;15.67;;;13.57;;
19414;SDS011;9843;48.882;12.592;2023-04-21T03:08:23;17.23;;;14.73;;
19414;SDS011;9843;48.882;12.592;2023-04-21T03:10:50;16.37;;;14.13;;
19414;SDS011;9843;48.882;12.592;2023-04-21T03:13:17;17.23;;;15.43;;
19414;SDS011;9843;48.882;12.592;2023-04-21T03:15:44;22.33;;;14.57;;
19414;SDS011;9843;48.882;12.592;2023-04-21T03:18:11;23.80;;;16.67;;
19414;SDS011;9843;48.882;12.592;2023-04-21T03:20:39;23.63;;;17.87;;
19414;SDS011;9843;48.882;12.592;2023-04-21T03:23:07;16.83;;;15.13;;
19414;SDS011;9843;48.882;12.592;2023-04-21T03:25:34;18.93;;;14.47;;
19414;SDS011;9843;48.882;12.592;2023-04-21T03:28:01;17.30;;;15.40;;
19414;SDS011;9843;48.882;12.592;2023-04-21T03:30:28;18.23;;;13.87;;
19414;SDS011;9843;48.882;12.592;2023-04-21T03:32:55;15.80;;;14.13;;
19414;SDS011;9843;48.882;12.592;2023-04-21T03:35:23;18.10;;;14.90;;
19414;SDS011;9843;48.882;12.592;2023-04-21T03:37:50;14.37;;;12.97;;
19414;SDS011;9843;48.882;12.592;2023-04-21T03:40:19;20.43;;;15.20;;
19414;SDS011;9843;48.882;12.592;2023-04-21T03:42:46;17.80;;;14.33;;
19414;SDS011;9843;48.882;12.592;2023-04-21T03:45:13;16.60;;;14.17;;
19414;SDS011;9843;48.882;12.592;2023-04-21T03:47:40;17.37;;;14.33;;
19414;SDS011;9843;48.882;12.592;2023-04-21T03:50:07;17.37;;;14.53;;
19414;SDS011;9843;48.882;12.592;2023-04-21T03:52:34;18.03;;;14.53;;
19414;SDS011;9843;48.882;12.592;2023-04-21T03:55:01;16.23;;;13.77;;
19414;SDS011;9843;48.882;12.592;2023-04-21T03:57:30;19.90;;;14.67;;
19414;SDS011;9843;48.882;12.592;2023-04-21T03:59:57;16.43;;;14.17;;
19414;SDS011;9843;48.882;12.592;2023-04-21T04:02:24;14.80;;;13.20;;
19414;SDS011;9843;48.882;12.592;2023-04-21T04:04:51;19.00;;;13.97;;
19414;SDS011;9843;48.882;12.592;2023-04-21T04:07:18;17.13;;;14.13;;
19414;SDS011;9843;48.882;12.592;2023-04-21T04:09:45;19.60;;;13.77;;
19414;SDS011;9843;48.882;12.592;2023-04-21T04:12:12;16.60;;;14.83;;
19414;SDS011;9843;48.882;12.592;2023-04-21T04:14:41;15.87;;;13.20;;
19414;SDS011;9843;48.882;12.592;2023-04-21T04:17:08;16.20;;;13.53;;
19414;SDS011;9843;48.882;12.592;2023-04-21T04:19:35;18.90;;;13.07;;
19414;SDS011;9843;48.882;12.592;2023-04-21T04:22:02;14.87;;;12.53;;
19414;SDS011;9843;48.882;12.592;2023-04-21T04:24:31;18.67;;;14.50;;
19414;SDS011;9843;48.882;12.592;2023-04-21T04:26:59;12.80;;;11.60;;
19414;SDS011;9843;48.882;12.592;2023-04-21T04:29:27;14.47;;;12.40;;
19414;SDS011;9843;48.882;12.592;2023-04-21T04:31:56;12.30;;;11.13;;
19414;SDS011;9843;48.882;12.592;2023-04-21T04:34:25;16.13;;;13.07;;
19414;SDS011;9843;48.882;12.592;2023-04-21T04:36:52;13.77;;;12.37;;
19414;SDS011;9843;48.882;12.592;2023-04-21T04:39:21;13.67;;;11.90;;
19414;SDS011;9843;48.882;12.592;2023-04-21T04:41:48;15.53;;;13.87;;
19414;SDS011;9843;48.882;12.592;2023-04-21T04:44:16;16.87;;;14.37;;
19414;SDS011;9843;48.882;12.592;2023-04-21T04:46:43;15.93;;;12.80;;
19414;SDS011;9843;48.882;12.592;2023-04-21T04:49:12;18.33;;;14.57;;
19414;SDS011;9843;48.882;12.592;2023-04-21T04:51:39;15.63;;;13.70;;
19414;SDS011;9843;48.882;12.592;2023-04-21T04:54:06;18.17;;;13.77;;
19414;SDS011;9843;48.882;12.592;2023-04-21T04:56:33;14.10;;;11.67;;
19414;SDS011;9843;48.882;12.592;2023-04-21T04:59:00;12.13;;;10.93;;
19414;SDS011;9843;48.882;12.592;2023-04-21T05:01:27;14.83;;;13.40;;
19414;SDS011;9843;48.882;12.592;2023-04-21T05:03:55;15.47;;;13.63;;
19414;SDS011;9843;48.882;12.592;2023-04-21T05:06:24;15.30;;;13.07;;
19414;SDS011;9843;48.882;12.592;2023-04-21T05:08:52;14.37;;;12.23;;
19414;SDS011;9843;48.882;12.592;2023-04-21T05:11:20;13.90;;;11.83;;
19414;SDS011;9843;48.882;12.592;2023-04-21T05:13:47;13.97;;;12.57;;
19414;SDS011;9843;48.882;12.592;2023-04-21T05:16:14;14.80;;;11.97;;
19414;SDS011;9843;48.882;12.592;2023-04-21T05:18:41;20.27;;;13.23;;
19414;SDS011;9843;48.882;12.592;2023-04-21T05:21:08;13.70;;;12.23;;
19414;SDS011;9843;48.882;12.592;2023-04-21T05:23:36;14.17;;;11.67;;
19414;SDS011;9843;48.882;12.592;2023-04-21T05:26:04;14.40;;;10.37;;
19414;SDS011;9843;48.882;12.592;2023-04-21T05:28:31;14.07;;;12.00;;
19414;SDS011;9843;48.882;12.592;2023-04-21T05:30:59;14.07;;;12.70;;
19414;SDS011;9843;48.882;12.592;2023-04-21T05:33:26;21.17;;;12.67;;
19414;SDS011;9843;48.882;12.592;2023-04-21T05:35:55;12.97;;;11.57;;
19414;SDS011;9843;48.882;12.592;2023-04-21T05:38:22;12.43;;;11.07;;
19414;SDS011;9843;48.882;12.592;2023-04-21T05:40:53;12.10;;;10.90;;
19414;SDS011;9843;48.882;12.592;2023-04-21T05:43:20;12.77;;;10.80;;
19414;SDS011;9843;48.882;12.592;2023-04-21T05:45:48;14.90;;;11.20;;
19414;SDS011;9843;48.882;12.592;2023-04-21T05:48:15;14.40;;;11.53;;
19414;SDS011;9843;48.882;12.592;2023-04-21T05:50:42;13.57;;;10.83;;
19414;SDS011;9843;48.882;12.592;2023-04-21T05:53:09;14.30;;;9.93;;
19414;SDS011;9843;48.882;12.592;2023-04-21T05:55:36;11.37;;;9.77;;
19414;SDS011;9843;48.882;12.592;2023-04-21T05:58:04;13.60;;;11.07;;
19414;SDS011;9843;48.882;12.592;2023-04-21T06:00:31;10.53;;;9.43;;
19414;SDS011;9843;48.882;12.592;2023-04-21T06:02:59;12.90;;;10.57;;
19414;SDS011;9843;48.882;12.592;2023-04-21T06:05:26;16.60;;;10.63;;
19414;SDS011;9843;48.882;12.592;2023-04-21T06:07:53;16.53;;;11.37;;
19414;SDS011;9843;48.882;12.592;2023-04-21T06:10:20;13.40;;;10.73;;
19414;SDS011;9843;48.882;12.592;2023-04-21T06:12:47;15.20;;;10.17;;
19414;SDS011;9843;48.882;12.592;2023-04-21T06:15:15;13.97;;;11.03;;
19414;SDS011;9843;48.882;12.592;2023-04-21T06:17:43;20.37;;;10.60;;
19414;SDS011;9843;48.882;12.592;2023-04-21T06:20:10;13.13;;;9.47;;
19414;SDS011;9843;48.882;12.592;2023-04-21T06:22:37;11.03;;;9.93;;
19414;SDS011;9843;48.882;12.592;2023-04-21T06:25:04;16.50;;;10.53;;
19414;SDS011;9843;48.882;12.592;2023-04-21T06:27:32;11.17;;;9.17;;
19414;SDS011;9843;48.882;12.592;2023-04-21T06:29:59;60.07;;;20.63;;
19414;SDS011;9843;48.882;12.592;2023-04-21T06:32:27;40.03;;;15.40;;
19414;SDS011;9843;48.882;12.592;2023-04-21T06:34:54;37.00;;;14.37;;
19414;SDS011;9843;48.882;12.592;2023-04-21T06:37:21;28.53;;;13.07;;
19414;SDS011;9843;48.882;12.592;2023-04-21T06:39:48;22.60;;;11.70;;
19414;SDS011;9843;48.882;12.592;2023-04-21T06:42:15;11.57;;;10.50;;
19414;SDS011;9843;48.882;12.592;2023-04-21T06:44:42;13.23;;;11.83;;
19414;SDS011;9843;48.882;12.592;2023-04-21T06:47:09;10.67;;;9.57;;
19414;SDS011;9843;48.882;12.592;2023-04-21T06:49:37;39.75;;;13.75;;
19414;SDS011;9843;48.882;12.592;2023-04-21T06:52:04;16.33;;;11.17;;
19414;SDS011;9843;48.882;12.592;2023-04-21T06:54:31;15.70;;;10.00;;
19414;SDS011;9843;48.882;12.592;2023-04-21T06:56:58;14.23;;;9.83;;
19414;SDS011;9843;48.882;12.592;2023-04-21T06:59:26;12.67;;;9.43;;
19414;SDS011;9843;48.882;12.592;2023-04-21T07:01:53;15.67;;;11.90;;
19414;SDS011;9843;48.882;12.592;2023-04-21T07:04:20;12.73;;;11.40;;
19414;SDS011;9843;48.882;12.592;2023-04-21T07:06:49;15.93;;;9.87;;
19414;SDS011;9843;48.882;12.592;2023-04-21T07:09:16;21.03;;;10.37;;
19414;SDS011;9843;48.882;12.592;2023-04-21T07:11:43;14.60;;;9.40;;
19414;SDS011;9843;48.882;12.592;2023-04-21T07:14:10;13.87;;;11.77;;
19414;SDS011;9843;48.882;12.592;2023-04-21T07:16:37;10.13;;;9.13;;
19414;SDS011;9843;48.882;12.592;2023-04-21T07:19:04;13.17;;;8.80;;
19414;SDS011;9843;48.882;12.592;2023-04-21T07:21:31;11.43;;;8.73;;
19414;SDS011;9843;48.882;12.592;2023-04-21T07:24:01;14.17;;;10.03;;
19414;SDS011;9843;48.882;12.592;2023-04-21T07:26:29;12.53;;;10.67;;
19414;SDS011;9843;48.882;12.592;2023-04-21T07:28:56;20.10;;;9.97;;
19414;SDS011;9843;48.882;12.592;2023-04-21T07:31:23;13.73;;;10.73;;
19414;SDS011;9843;48.882;12.592;2023-04-21T07:33:50;15.40;;;10.50;;
19414;SDS011;9843;48.882;12.592;2023-04-21T07:36:17;12.45;;;11.15;;
19414;SDS011;9843;48.882;12.592;2023-04-21T07:38:44;11.20;;;10.03;;
19414;SDS011;9843;48.882;12.592;2023-04-21T07:41:13;16.53;;;9.67;;
19414;SDS011;9843;48.882;12.592;2023-04-21T07:43:40;17.60;;;11.87;;
19414;SDS011;9843;48.882;12.592;2023-04-21T07:46:07;11.13;;;9.97;;
19414;SDS011;9843;48.882;12.592;2023-04-21T07:48:34;14.20;;;10.20;;
19414;SDS011;9843;48.882;12.592;2023-04-21T07:51:01;9.70;;;8.70;;
19414;SDS011;9843;48.882;12.592;2023-04-21T07:53:28;9.00;;;8.10;;
19414;SDS011;9843;48.882;12.592;2023-04-21T07:55:55;13.20;;;8.90;;
19414;SDS011;9843;48.882;12.592;2023-04-21T07:58:23;9.17;;;8.23;;
19414;SDS011;9843;48.882;12.592;2023-04-21T08:00:51;13.33;;;9.87;;
19414;SDS011;9843;48.882;12.592;2023-04-21T08:03:18;9.77;;;8.47;;
19414;SDS011;9843;48.882;12.592;2023-04-21T08:05:45;13.67;;;9.23;;
19414;SDS011;9843;48.882;12.592;2023-04-21T08:08:12;13.23;;;8.27;;
19414;SDS011;9843;48.882;12.592;2023-04-21T08:10:44;10.77;;;8.90;;
19414;SDS011;9843;48.882;12.592;2023-04-21T08:13:11;12.93;;;8.30;;
19414;SDS011;9843;48.882;12.592;2023-04-21T08:15:39;8.87;;;7.70;;
19414;SDS011;9843;48.882;12.592;2023-04-21T08:18:06;8.87;;;6.87;;
19414;SDS011;9843;48.882;12.592;2023-04-21T08:20:33;8.63;;;7.30;;
19414;SDS011;9843;48.882;12.592;2023-04-21T08:23:00;9.53;;;7.83;;
19414;SDS011;9843;48.882;12.592;2023-04-21T08:25:28;11.07;;;8.87;;
19414;SDS011;9843;48.882;12.592;2023-04-21T08:27:55;9.83;;;7.87;;
19414;SDS011;9843;48.882;12.592;2023-04-21T08:30:22;9.23;;;8.30;;
19414;SDS011;9843;48.882;12.592;2023-04-21T08:32:50;13.90;;;9.43;;
19414;SDS011;9843;48.882;12.592;2023-04-21T08:35:17;9.20;;;7.07;;
19414;SDS011;9843;48.882;12.592;2023-04-21T08:37:44;10.40;;;8.27;;
19414;SDS011;9843;48.882;12.592;2023-04-21T08:40:11;11.13;;;8.87;;
19414;SDS011;9843;48.882;12.592;2023-04-21T08:42:38;10.13;;;7.03;;
19414;SDS011;9843;48.882;12.592;2023-04-21T08:45:06;9.10;;;7.77;;
19414;SDS011;9843;48.882;12.592;2023-04-21T08:47:33;10.63;;;6.77;;
19414;SDS011;9843;48.882;12.592;2023-04-21T08:50:02;6.80;;;6.03;;
19414;SDS011;9843;48.882;12.592;2023-04-21T08:52:29;10.73;;;8.43;;
19414;SDS011;9843;48.882;12.592;2023-04-21T08:54:56;10.07;;;8.13;;
19414;SDS011;9843;48.882;12.592;2023-04-21T08:57:24;9.13;;;8.23;;
19414;SDS011;9843;48.882;12.592;2023-04-21T08:59:51;9.33;;;7.97;;
19414;SDS011;9843;48.882;12.592;2023-04-21T09:02:19;9.23;;;7.97;;
19414;SDS011;9843;48.882;12.592;2023-04-21T09:04:46;9.00;;;7.23;;
19414;SDS011;9843;48.882;12.592;2023-04-21T09:07:28;9.07;;;7.20;;
19414;SDS011;9843;48.882;12.592;2023-04-21T09:09:56;8.77;;;7.47;;
19414;SDS011;9843;48.882;12.592;2023-04-21T09:12:24;16.27;;;8.00;;
19414;SDS011;9843;48.882;12.592;2023-04-21T09:14:51;7.50;;;6.70;;
19414;SDS011;9843;48.882;12.592;2023-04-21T09:17:20;7.57;;;6.87;;
19414;SDS011;9843;48.882;12.592;2023-04-21T09:19:47;8.90;;;6.60;;
19414;SDS011;9843;48.882;12.592;2023-04-21T09:22:15;8.90;;;6.50;;
19414;SDS011;9843;48.882;12.592;2023-04-21T09:24:46;6.63;;;5.97;;
19414;SDS011;9843;48.882;12.592;2023-04-21T09:27:14;7.40;;;5.97;;
19414;SDS011;9843;48.882;12.592;2023-04-21T09:29:44;8.17;;;5.00;;
19414;SDS011;9843;48.882;12.592;2023-04-21T09:32:15;8.68;;;5.90;;
19414;SDS011;9843;48.882;12.592;2023-04-21T09:34:43;6.55;;;5.70;;
19414;SDS011;9843;48.882;12.592;2023-04-21T09:37:11;7.18;;;5.78;;
19414;SDS011;9843;48.882;12.592;2023-04-21T09:39:38;6.78;;;6.07;;
19414;SDS011;9843;48.882;12.592;2023-04-21T09:42:07;8.88;;;5.72;;
19414;SDS011;9843;48.882;12.592;2023-04-21T09:44:36;8.30;;;5.05;;
19414;SDS011;9843;48.882;12.592;2023-04-21T09:47:03;4.93;;;4.45;;
19414;SDS011;9843;48.882;12.592;2023-04-21T09:49:32;7.82;;;5.15;;
19414;SDS011;9843;48.882;12.592;2023-04-21T09:52:00;5.93;;;4.82;;
19414;SDS011;9843;48.882;12.592;2023-04-21T09:54:27;5.15;;;4.50;;
19414;SDS011;9843;48.882;12.592;2023-04-21T09:56:55;5.03;;;4.18;;
19414;SDS011;9843;48.882;12.592;2023-04-21T09:59:25;4.25;;;3.75;;
19414;SDS011;9843;48.882;12.592;2023-04-21T10:01:55;4.05;;;3.65;;
19414;SDS011;9843;48.882;12.592;2023-04-21T10:04:23;5.75;;;4.10;;
19414;SDS011;9843;48.882;12.592;2023-04-21T10:06:50;4.55;;;3.60;;
19414;SDS011;9843;48.882;12.592;2023-04-21T10:09:17;3.95;;;3.22;;
19414;SDS011;9843;48.882;12.592;2023-04-21T10:11:47;4.78;;;3.47;;
19414;SDS011;9843;48.882;12.592;2023-04-21T10:14:14;4.00;;;3.30;;
19414;SDS011;9843;48.882;12.592;2023-04-21T10:16:42;4.90;;;3.35;;
19414;SDS011;9843;48.882;12.592;2023-04-21T10:19:22;3.75;;;3.08;;
19414;SDS011;9843;48.882;12.592;2023-04-21T10:21:50;5.47;;;4.47;;
19414;SDS011;9843;48.882;12.592;2023-04-21T10:24:17;5.07;;;3.40;;
19414;SDS011;9843;48.882;12.592;2023-04-21T10:26:44;4.20;;;3.50;;
19414;SDS011;9843;48.882;12.592;2023-04-21T10:29:11;5.30;;;3.78;;
19414;SDS011;9843;48.882;12.592;2023-04-21T10:31:49;8.05;;;4.10;;
19414;SDS011;9843;48.882;12.592;2023-04-21T10:34:18;4.78;;;3.83;;
19414;SDS011;9843;48.882;12.592;2023-04-21T10:36:50;4.95;;;4.15;;
19414;SDS011;9843;48.882;12.592;2023-04-21T10:39:34;6.05;;;3.13;;
19414;SDS011;9843;48.882;12.592;2023-04-21T10:42:17;5.10;;;4.35;;
19414;SDS011;9843;48.882;12.592;2023-04-21T10:44:49;3.30;;;2.95;;
19414;SDS011;9843;48.882;12.592;2023-04-21T10:47:24;7.22;;;3.95;;
19414;SDS011;9843;48.882;12.592;2023-04-21T10:49:51;4.25;;;2.85;;
19414;SDS011;9843;48.882;12.592;2023-04-21T10:52:19;4.50;;;3.30;;
19414;SDS011;9843;48.882;12.592;2023-04-21T10:57:30;4.80;;;3.58;;
19414;SDS011;9843;48.882;12.592;2023-04-21T10:59:57;3.35;;;2.97;;
19414;SDS011;9843;48.882;12.592;2023-04-21T11:02:26;5.70;;;2.58;;
19414;SDS011;9843;48.882;12.592;2023-04-21T11:04:53;3.80;;;3.13;;
19414;SDS011;9843;48.882;12.592;2023-04-21T11:07:20;5.32;;;3.42;;
19414;SDS011;9843;48.882;12.592;2023-04-21T11:09:55;4.63;;;3.25;;
19414;SDS011;9843;48.882;12.592;2023-04-21T11:12:24;3.20;;;2.92;;
19414;SDS011;9843;48.882;12.592;2023-04-21T11:14:52;4.13;;;2.85;;
19414;SDS011;9843;48.882;12.592;2023-04-21T11:17:19;5.25;;;1.95;;
19414;SDS011;9843;48.882;12.592;2023-04-21T11:19:48;3.10;;;1.83;;
19414;SDS011;9843;48.882;12.592;2023-04-21T11:22:15;3.42;;;1.58;;
19414;SDS011;9843;48.882;12.592;2023-04-21T11:24:43;1.90;;;1.48;;
19414;SDS011;9843;48.882;12.592;2023-04-21T11:27:10;3.28;;;1.92;;
19414;SDS011;9843;48.882;12.592;2023-04-21T11:29:38;3.53;;;2.13;;
19414;SDS011;9843;48.882;12.592;2023-04-21T11:32:05;3.08;;;1.67;;
19414;SDS011;9843;48.882;12.592;2023-04-21T11:34:33;7.97;;;2.15;;
19414;SDS011;9843;48.882;12.592;2023-04-21T11:37:01;4.45;;;2.25;;
19414;SDS011;9843;48.882;12.592;2023-04-21T11:39:28;2.90;;;1.55;;
19414;SDS011;9843;48.882;12.592;2023-04-21T11:41:55;3.40;;;1.83;;
19414;SDS011;9843;48.882;12.592;2023-04-21T11:44:29;2.15;;;1.75;;
19414;SDS011;9843;48.882;12.592;2023-04-21T11:46:57;3.00;;;1.70;;
19414;SDS011;9843;48.882;12.592;2023-04-21T11:49:24;2.83;;;1.95;;
19414;SDS011;9843;48.882;12.592;2023-04-21T11:51:53;3.95;;;1.60;;
19414;SDS011;9843;48.882;12.592;2023-04-21T11:54:22;2.55;;;2.03;;
19414;SDS011;9843;48.882;12.592;2023-04-21T11:56:49;2.05;;;1.77;;
19414;SDS011;9843;48.882;12.592;2023-04-21T11:59:18;2.47;;;1.65;;
19414;SDS011;9843;48.882;12.592;2023-04-21T12:01:48;2.97;;;1.73;;
19414;SDS011;9843;48.882;12.592;2023-04-21T12:04:16;4.03;;;1.65;;
19414;SDS011;9843;48.882;12.592;2023-04-21T12:06:43;2.70;;;1.83;;
19414;SDS011;9843;48.882;12.592;2023-04-21T12:09:15;1.75;;;1.50;;
19414;SDS011;9843;48.882;12.592;2023-04-21T12:11:45;2.22;;;1.90;;
19414;SDS011;9843;48.882;12.592;2023-04-21T12:14:13;4.30;;;1.73;;
19414;SDS011;9843;48.882;12.592;2023-04-21T12:16:41;3.60;;;2.20;;
19414;SDS011;9843;48.882;12.592;2023-04-21T12:19:08;2.15;;;1.38;;
19414;SDS011;9843;48.882;12.592;2023-04-21T12:21:36;4.43;;;2.10;;
19414;SDS011;9843;48.882;12.592;2023-04-21T12:24:03;3.92;;;2.35;;
19414;SDS011;9843;48.882;12.592;2023-04-21T12:26:30;2.67;;;1.92;;
19414;SDS011;9843;48.882;12.592;2023-04-21T12:28:59;4.50;;;1.67;;
19414;SDS011;9843;48.882;12.592;2023-04-21T12:31:26;5.97;;;1.70;;
19414;SDS011;9843;48.882;12.592;2023-04-21T12:33:53;4.65;;;1.60;;
19414;SDS011;9843;48.882;12.592;2023-04-21T12:36:21;3.53;;;1.83;;
19414;SDS011;9843;48.882;12.592;2023-04-21T12:38:48;2.22;;;1.98;;
19414;SDS011;9843;48.882;12.592;2023-04-21T12:41:15;1.95;;;1.52;;
19414;SDS011;9843;48.882;12.592;2023-04-21T12:43:42;1.52;;;1.15;;
19414;SDS011;9843;48.882;12.592;2023-04-21T12:46:10;3.05;;;1.92;;
19414;SDS011;9843;48.882;12.592;2023-04-21T12:48:37;3.70;;;2.47;;
19414;SDS011;9843;48.882;12.592;2023-04-21T12:51:05;1.83;;;1.00;;
19414;SDS011;9843;48.882;12.592;2023-04-21T12:53:32;2.65;;;1.65;;
19414;SDS011;9843;48.882;12.592;2023-04-21T12:56:00;1.05;;;0.88;;
19414;SDS011;9843;48.882;12.592;2023-04-21T12:58:27;2.58;;;1.33;;
19414;SDS011;9843;48.882;12.592;2023-04-21T13:00:54;3.97;;;1.67;;
19414;SDS011;9843;48.882;12.592;2023-04-21T13:03:23;3.83;;;1.75;;
19414;SDS011;9843;48.882;12.592;2023-04-21T13:05:51;4.00;;;2.13;;
19414;SDS011;9843;48.882;12.592;2023-04-21T13:08:18;1.23;;;0.93;;
19414;SDS011;9843;48.882;12.592;2023-04-21T13:10:50;1.90;;;1.23;;
19414;SDS011;9843;48.882;12.592;2023-04-21T13:13:32;2.20;;;1.17;;
19414;SDS011;9843;48.882;12.592;2023-04-21T13:15:59;2.53;;;1.70;;
19414;SDS011;9843;48.882;12.592;2023-04-21T13:18:27;6.60;;;1.88;;
19414;SDS011;9843;48.882;12.592;2023-04-21T13:20:54;1.48;;;1.38;;
19414;SDS011;9843;48.882;12.592;2023-04-21T13:23:21;2.30;;;1.98;;
19414;SDS011;9843;48.882;12.592;2023-04-21T13:25:48;4.47;;;1.85;;
19414;SDS011;9843;48.882;12.592;2023-04-21T13:28:17;2.95;;;1.83;;
19414;SDS011;9843;48.882;12.592;2023-04-21T13:30:44;2.83;;;1.83;;
19414;SDS011;9843;48.882;12.592;2023-04-21T13:33:11;2.13;;;1.40;;
19414;SDS011;9843;48.882;12.592;2023-04-21T13:35:39;3.67;;;2.28;;
19414;SDS011;9843;48.882;12.592;2023-04-21T13:38:06;1.60;;;1.45;;
19414;SDS011;9843;48.882;12.592;2023-04-21T13:40:33;3.17;;;1.42;;
19414;SDS011;9843;48.882;12.592;2023-04-21T13:43:01;1.65;;;1.20;;
19414;SDS011;9843;48.882;12.592;2023-04-21T13:45:28;3.42;;;1.42;;
19414;SDS011;9843;48.882;12.592;2023-04-21T13:47:55;1.35;;;1.25;;
19414;SDS011;9843;48.882;12.592;2023-04-21T13:50:22;2.20;;;1.55;;
19414;SDS011;9843;48.882;12.592;2023-04-21T13:52:50;2.17;;;1.20;;
19414;SDS011;9843;48.882;12.592;2023-04-21T13:55:17;2.03;;;1.40;;
19414;SDS011;9843;48.882;12.592;2023-04-21T13:57:44;4.15;;;1.70;;
19414;SDS011;9843;48.882;12.592;2023-04-21T14:00:12;2.38;;;1.90;;
19414;SDS011;9843;48.882;12.592;2023-04-21T14:02:39;2.58;;;1.58;;
19414;SDS011;9843;48.882;12.592;2023-04-21T14:05:07;1.83;;;1.58;;
19414;SDS011;9843;48.882;12.592;2023-04-21T14:07:34;1.47;;;1.30;;
19414;SDS011;9843;48.882;12.592;2023-04-21T14:10:03;1.77;;;1.47;;
19414;SDS011;9843;48.882;12.592;2023-04-21T14:12:30;5.13;;;1.77;;
19414;SDS011;9843;48.882;12.592;2023-04-21T14:14:57;2.00;;;1.53;;
19414;SDS011;9843;48.882;12.592;2023-04-21T14:17:24;2.20;;;1.50;;
19414;SDS011;9843;48.882;12.592;2023-04-21T14:19:51;2.70;;;1.50;;
19414;SDS011;9843;48.882;12.592;2023-04-21T14:22:18;3.03;;;2.27;;
19414;SDS011;9843;48.882;12.592;2023-04-21T14:24:45;2.30;;;1.90;;
19414;SDS011;9843;48.882;12.592;2023-04-21T14:27:14;1.60;;;1.50;;
19414;SDS011;9843;48.882;12.592;2023-04-21T14:29:41;1.73;;;1.63;;
19414;SDS011;9843;48.882;12.592;2023-04-21T14:32:08;2.63;;;1.97;;
19414;SDS011;9843;48.882;12.592;2023-04-21T14:34:35;1.77;;;1.33;;
19414;SDS011;9843;48.882;12.592;2023-04-21T14:37:02;1.30;;;1.20;;
19414;SDS011;9843;48.882;12.592;2023-04-21T14:39:29;1.73;;;1.50;;
19414;SDS011;9843;48.882;12.592;2023-04-21T14:41:56;1.30;;;1.20;;